Georgetown, CT (06829)

1:04 AM EDT on July 08, 2015 (GMT -0400)
Redding/Georgetown | | Change Station
CLOSE
Current Station
Personal Weather Station
Location: Redding, CT
Elevation: 548 ft
Nearby Weather Stations
Active Advisory: Flood Warning

Elev 548 ft 41.28 °N, 73.42 °W | Updated 4 minutes ago

Clear
Clear
69.4 °F
Feels Like 69.4 °F
N
0.0
Wind Variable Wind from ESE
Gusts 0.0 mph

Today
High -- | Low -- °F
--% Chance of Precip.
Yesterday
High -- | Low -- °F
Precip. -- in
5:28 AM 8:28 PM
Waning Gibbous, 57% visible
Pressure 29.97 in
Visibility 2.5 miles
Clouds Clear
Dew Point 69 °F
Humidity 98%
Rainfall 0.88 in
Snow Depth Not available.
UV 0 out of 12
Pollen 2.90 out of 12
Air Quality Not available.
Flu Activity Not available.
SPECI KDXR 080501Z AUTO 00000KT 2 1/2SM BR CLR 21/19 A2997 RMK AO2 T02110194 $

More Conditions Fewer Conditions

Pressure 29.97 in
Visibility 2.5 miles
Clouds Clear
Dew Point 69 °F
Humidity 98%
Rainfall 0.88 in
Snow Depth Not available.
UV 0 out of 12
Pollen 2.90 out of 12
Air Quality Not available.
Flu Activity Not available.
SPECI KDXR 080501Z AUTO 00000KT 2 1/2SM BR CLR 21/19 A2997 RMK AO2 T02110194 $

More Conditions Fewer Conditions

10-Day Weather Forecast

×

Almanac

Astronomy

Jul. 08, 2015 Rise Set
Actual Time
Civil Twilight
Nautical Twilight
Astronomical Twilight
Moon
Length of Visible Light
Length of Day
Tomorrow will be .
, % of the Moon is Illuminated

Today's Extremes

State Highs State Lows

Community

WunderPhotos

Upload Photos

1,836,057 photos uploaded!

WunderBlogs® & News

Nearby

Air Quality

  Air Quality AQ Index Pollutant
Not available.

Snow Depth

Station Depth Elevation

Earthquake Activity

City Distance Mag. Time & Date
Minimum magnitude displayed is 2.5.

Coastal Water Temperatures

Place Temperature

Stations

Nearby Weather Stations

Station Location Temp. Windchill Dew Point Humidity Wind Precip. Elev Updated Type
                   
Flood Warning
Statement as of 12:02 AM EDT on July 08, 2015

The National Weather Service in Albany has issued a

* Flood Warning for
the Still River at Brookfield.
* From early this morning until this morning.
* At 11 PM Tuesday the stage was... 11.9 feet.
* Flood stage is 12 feet.
* Minor flooding is forecast.
* Forecast... the river is forecast to rise to near 12.1 feet around
1 am Wednesday. The river is forecast to fall below flood stage
after 4 am Wednesday.
* Impact... at 12 feet... water floods lowlands along the Still River.


                  Fld observed forecast
                                       8 am 2 PM 8 PM 2 am 8 am
location stg stg day time Wed Wed Wed Thu Thu

Still River
Brookfield 12.0 12.0 Wed 12 am 11.8 11.4 11.0 10.6 10.3


lat... Lon 4144 7344 4143 7352 4134 7352 4137 7336
      4153 7333 4151 7344